sensor_id;sensor_type;location;lat;lon;timestamp;temperature;humidity
21417;DHT22;10869;52.238;10.716;2023-01-25T04:01:18;0.10;99.90
21417;DHT22;10869;52.238;10.716;2023-01-25T04:03:44;0.10;99.90
21417;DHT22;10869;52.238;10.716;2023-01-25T04:06:09;0.10;99.90
21417;DHT22;10869;52.238;10.716;2023-01-25T04:08:35;0.10;99.90
21417;DHT22;10869;52.238;10.716;2023-01-25T04:11:09;0.10;99.90
21417;DHT22;10869;52.238;10.716;2023-01-25T04:13:35;0.20;99.90
21417;DHT22;10869;52.238;10.716;2023-01-25T04:16:02;0.20;99.90
21417;DHT22;10869;52.238;10.716;2023-01-25T04:18:28;0.20;99.90
21417;DHT22;10869;52.238;10.716;2023-01-25T04:20:55;0.20;99.90
21417;DHT22;10869;52.238;10.716;2023-01-25T04:23:23;0.20;99.90
21417;DHT22;10869;52.238;10.716;2023-01-25T04:26:00;0.10;99.90
21417;DHT22;10869;52.238;10.716;2023-01-25T04:28:27;0.00;99.90
21417;DHT22;10869;52.238;10.716;2023-01-25T04:30:54;0.00;99.90
21417;DHT22;10869;52.238;10.716;2023-01-25T04:33:21;0.00;99.90
21417;DHT22;10869;52.238;10.716;2023-01-25T04:35:46;0.00;99.90
21417;DHT22;10869;52.238;10.716;2023-01-25T04:38:13;0.00;99.90
21417;DHT22;10869;52.238;10.716;2023-01-25T04:40:39;0.00;99.90
21417;DHT22;10869;52.238;10.716;2023-01-25T04:43:05;0.00;99.90
21417;DHT22;10869;52.238;10.716;2023-01-25T04:45:31;0.00;99.90
21417;DHT22;10869;52.238;10.716;2023-01-25T04:48:04;0.00;99.90
21417;DHT22;10869;52.238;10.716;2023-01-25T04:50:30;0.10;99.90
21417;DHT22;10869;52.238;10.716;2023-01-25T04:52:56;0.10;99.90
21417;DHT22;10869;52.238;10.716;2023-01-25T04:55:22;0.10;99.90
21417;DHT22;10869;52.238;10.716;2023-01-25T04:57:48;0.20;99.90
21417;DHT22;10869;52.238;10.716;2023-01-25T05:00:16;0.20;99.90
21417;DHT22;10869;52.238;10.716;2023-01-25T05:02:42;0.20;99.90
21417;DHT22;10869;52.238;10.716;2023-01-25T05:05:08;0.10;99.90
21417;DHT22;10869;52.238;10.716;2023-01-25T05:07:36;0.10;99.90
21417;DHT22;10869;52.238;10.716;2023-01-25T05:10:02;0.10;99.90
21417;DHT22;10869;52.238;10.716;2023-01-25T05:12:27;0.10;99.90
21417;DHT22;10869;52.238;10.716;2023-01-25T05:14:53;0.10;99.90
21417;DHT22;10869;52.238;10.716;2023-01-25T05:17:19;0.20;99.90
21417;DHT22;10869;52.238;10.716;2023-01-25T05:19:45;0.20;99.90
21417;DHT22;10869;52.238;10.716;2023-01-25T05:22:15;0.20;99.90
21417;DHT22;10869;52.238;10.716;2023-01-25T05:24:41;0.30;99.90
21417;DHT22;10869;52.238;10.716;2023-01-25T05:27:10;0.30;99.90
21417;DHT22;10869;52.238;10.716;2023-01-25T05:29:41;0.20;99.90
21417;DHT22;10869;52.238;10.716;2023-01-25T05:32:27;0.10;99.90
21417;DHT22;10869;52.238;10.716;2023-01-25T05:34:53;0.20;99.90
21417;DHT22;10869;52.238;10.716;2023-01-25T05:37:20;0.20;99.90
21417;DHT22;10869;52.238;10.716;2023-01-25T05:39:45;0.20;99.90
21417;DHT22;10869;52.238;10.716;2023-01-25T05:42:13;0.20;99.90
21417;DHT22;10869;52.238;10.716;2023-01-25T05:44:39;0.20;99.90
21417;DHT22;10869;52.238;10.716;2023-01-25T05:47:05;0.20;99.90
21417;DHT22;10869;52.238;10.716;2023-01-25T05:49:31;0.20;99.90
21417;DHT22;10869;52.238;10.716;2023-01-25T05:51:57;0.20;99.90
21417;DHT22;10869;52.238;10.716;2023-01-25T05:54:23;0.30;99.90
21417;DHT22;10869;52.238;10.716;2023-01-25T05:56:49;0.20;99.90
21417;DHT22;10869;52.238;10.716;2023-01-25T05:59:15;0.20;99.90
21417;DHT22;10869;52.238;10.716;2023-01-25T06:01:42;0.20;99.90
21417;DHT22;10869;52.238;10.716;2023-01-25T06:04:18;0.20;99.90
21417;DHT22;10869;52.238;10.716;2023-01-25T06:06:44;0.30;99.90
21417;DHT22;10869;52.238;10.716;2023-01-25T06:09:13;0.30;99.90
21417;DHT22;10869;52.238;10.716;2023-01-25T06:11:42;0.30;99.90
21417;DHT22;10869;52.238;10.716;2023-01-25T06:14:09;0.30;99.90
21417;DHT22;10869;52.238;10.716;2023-01-25T06:16:34;0.30;99.90
21417;DHT22;10869;52.238;10.716;2023-01-25T06:19:00;0.30;99.90
21417;DHT22;10869;52.238;10.716;2023-01-25T06:21:26;0.30;99.90
21417;DHT22;10869;52.238;10.716;2023-01-25T06:23:52;0.20;99.90
21417;DHT22;10869;52.238;10.716;2023-01-25T06:26:18;0.20;99.90
21417;DHT22;10869;52.238;10.716;2023-01-25T06:28:44;0.10;99.90
21417;DHT22;10869;52.238;10.716;2023-01-25T06:31:15;0.10;99.90
21417;DHT22;10869;52.238;10.716;2023-01-25T06:33:42;0.10;99.90
21417;DHT22;10869;52.238;10.716;2023-01-25T06:36:11;0.10;99.90
21417;DHT22;10869;52.238;10.716;2023-01-25T06:38:38;0.10;99.90
21417;DHT22;10869;52.238;10.716;2023-01-25T06:41:06;0.10;99.90
21417;DHT22;10869;52.238;10.716;2023-01-25T06:43:34;0.20;99.90
21417;DHT22;10869;52.238;10.716;2023-01-25T06:46:01;0.10;99.90
21417;DHT22;10869;52.238;10.716;2023-01-25T06:48:28;0.10;99.90
21417;DHT22;10869;52.238;10.716;2023-01-25T06:51:01;0.10;99.90
21417;DHT22;10869;52.238;10.716;2023-01-25T06:53:29;0.10;99.90
21417;DHT22;10869;52.238;10.716;2023-01-25T06:59:17;0.10;99.90
21417;DHT22;10869;52.238;10.716;2023-01-25T07:01:43;0.10;99.90
21417;DHT22;10869;52.238;10.716;2023-01-25T07:04:10;0.10;99.90
21417;DHT22;10869;52.238;10.716;2023-01-25T07:06:38;0.10;99.90
21417;DHT22;10869;52.238;10.716;2023-01-25T07:09:10;0.10;99.90
21417;DHT22;10869;52.238;10.716;2023-01-25T07:11:55;0.20;99.90
21417;DHT22;10869;52.238;10.716;2023-01-25T07:17:57;0.20;99.90
21417;DHT22;10869;52.238;10.716;2023-01-25T07:20:32;0.20;99.90
21417;DHT22;10869;52.238;10.716;2023-01-25T07:22:58;0.20;99.90
21417;DHT22;10869;52.238;10.716;2023-01-25T07:25:31;0.10;99.90
21417;DHT22;10869;52.238;10.716;2023-01-25T07:34:40;0.10;99.90
21417;DHT22;10869;52.238;10.716;2023-01-25T07:37:23;0.10;99.90
21417;DHT22;10869;52.238;10.716;2023-01-25T07:39:52;0.10;99.90
21417;DHT22;10869;52.238;10.716;2023-01-25T07:42:17;0.10;99.90
21417;DHT22;10869;52.238;10.716;2023-01-25T07:44:43;0.00;99.90
21417;DHT22;10869;52.238;10.716;2023-01-25T07:47:09;0.00;99.90
21417;DHT22;10869;52.238;10.716;2023-01-25T07:49:34;0.00;99.90
21417;DHT22;10869;52.238;10.716;2023-01-25T07:52:00;0.00;99.90
21417;DHT22;10869;52.238;10.716;2023-01-25T07:54:26;0.00;99.90
21417;DHT22;10869;52.238;10.716;2023-01-25T07:56:52;0.10;99.90
21417;DHT22;10869;52.238;10.716;2023-01-25T08:02:40;0.10;99.90
21417;DHT22;10869;52.238;10.716;2023-01-25T08:05:06;0.10;99.90
21417;DHT22;10869;52.238;10.716;2023-01-25T08:10:54;0.10;99.90
21417;DHT22;10869;52.238;10.716;2023-01-25T08:13:54;0.10;99.90
21417;DHT22;10869;52.238;10.716;2023-01-25T08:19:41;0.10;99.90
21417;DHT22;10869;52.238;10.716;2023-01-25T08:22:07;0.20;99.90
21417;DHT22;10869;52.238;10.716;2023-01-25T08:27:55;0.20;99.90
21417;DHT22;10869;52.238;10.716;2023-01-25T08:30:30;0.20;99.90
21417;DHT22;10869;52.238;10.716;2023-01-25T08:33:16;0.30;99.90
21417;DHT22;10869;52.238;10.716;2023-01-25T08:39:06;0.30;99.90
21417;DHT22;10869;52.238;10.716;2023-01-25T08:44:53;0.20;99.90
21417;DHT22;10869;52.238;10.716;2023-01-25T08:47:19;0.30;99.90
21417;DHT22;10869;52.238;10.716;2023-01-25T08:49:45;0.30;99.90
21417;DHT22;10869;52.238;10.716;2023-01-25T08:55:02;0.20;99.90
21417;DHT22;10869;52.238;10.716;2023-01-25T08:57:29;0.30;99.90
21417;DHT22;10869;52.238;10.716;2023-01-25T08:59:55;0.30;99.90
21417;DHT22;10869;52.238;10.716;2023-01-25T09:02:21;0.20;99.90
21417;DHT22;10869;52.238;10.716;2023-01-25T09:04:47;0.20;99.90
21417;DHT22;10869;52.238;10.716;2023-01-25T09:10:35;0.30;99.90
21417;DHT22;10869;52.238;10.716;2023-01-25T09:13:01;0.20;99.90
21417;DHT22;10869;52.238;10.716;2023-01-25T09:15:27;0.20;99.90
21417;DHT22;10869;52.238;10.716;2023-01-25T09:25:20;0.30;99.90
21417;DHT22;10869;52.238;10.716;2023-01-25T09:31:10;0.20;99.90
21417;DHT22;10869;52.238;10.716;2023-01-25T09:33:59;0.20;99.90
21417;DHT22;10869;52.238;10.716;2023-01-25T09:36:33;0.10;99.90
21417;DHT22;10869;52.238;10.716;2023-01-25T09:39:20;0.10;99.90
21417;DHT22;10869;52.238;10.716;2023-01-25T09:47:13;0.20;99.90
21417;DHT22;10869;52.238;10.716;2023-01-25T09:55:35;0.30;99.90
21417;DHT22;10869;52.238;10.716;2023-01-25T09:58:01;0.20;99.90
21417;DHT22;10869;52.238;10.716;2023-01-25T10:00:41;0.20;99.90
21417;DHT22;10869;52.238;10.716;2023-01-25T10:03:38;0.20;99.90
21417;DHT22;10869;52.238;10.716;2023-01-25T10:06:11;0.20;99.90
21417;DHT22;10869;52.238;10.716;2023-01-25T10:14:42;0.30;99.90
21417;DHT22;10869;52.238;10.716;2023-01-25T10:17:36;0.40;99.90
21417;DHT22;10869;52.238;10.716;2023-01-25T10:25:35;0.40;99.90
21417;DHT22;10869;52.238;10.716;2023-01-25T10:31:06;0.50;99.90
21417;DHT22;10869;52.238;10.716;2023-01-25T10:33:38;0.40;99.90
21417;DHT22;10869;52.238;10.716;2023-01-25T10:36:05;0.40;99.90
21417;DHT22;10869;52.238;10.716;2023-01-25T10:38:41;0.40;99.90
21417;DHT22;10869;52.238;10.716;2023-01-25T10:41:46;0.40;99.90
21417;DHT22;10869;52.238;10.716;2023-01-25T10:44:13;0.30;99.90
21417;DHT22;10869;52.238;10.716;2023-01-25T10:52:34;0.30;99.90
21417;DHT22;10869;52.238;10.716;2023-01-25T10:55:19;0.40;99.90
21417;DHT22;10869;52.238;10.716;2023-01-25T10:57:49;0.40;99.90
21417;DHT22;10869;52.238;10.716;2023-01-25T11:00:26;0.40;99.90
21417;DHT22;10869;52.238;10.716;2023-01-25T11:02:54;0.50;99.90
21417;DHT22;10869;52.238;10.716;2023-01-25T11:07:52;0.50;99.90
21417;DHT22;10869;52.238;10.716;2023-01-25T11:13:28;0.50;99.90
21417;DHT22;10869;52.238;10.716;2023-01-25T11:18:51;0.60;99.90
21417;DHT22;10869;52.238;10.716;2023-01-25T11:21:28;0.50;99.90
21417;DHT22;10869;52.238;10.716;2023-01-25T11:26:38;0.50;99.90
21417;DHT22;10869;52.238;10.716;2023-01-25T11:31:36;0.50;99.90
21417;DHT22;10869;52.238;10.716;2023-01-25T11:34:04;0.40;99.90
21417;DHT22;10869;52.238;10.716;2023-01-25T11:36:49;0.50;99.90
21417;DHT22;10869;52.238;10.716;2023-01-25T11:47:45;0.40;99.90
21417;DHT22;10869;52.238;10.716;2023-01-25T12:01:04;0.50;99.90
21417;DHT22;10869;52.238;10.716;2023-01-25T12:03:55;0.50;99.90
21417;DHT22;10869;52.238;10.716;2023-01-25T12:09:21;0.50;99.90
21417;DHT22;10869;52.238;10.716;2023-01-25T12:14:30;0.50;99.90
21417;DHT22;10869;52.238;10.716;2023-01-25T12:17:24;0.50;99.90
21417;DHT22;10869;52.238;10.716;2023-01-25T12:28:27;0.40;99.90
21417;DHT22;10869;52.238;10.716;2023-01-25T12:33:56;0.40;99.90
21417;DHT22;10869;52.238;10.716;2023-01-25T12:36:47;0.40;99.90
21417;DHT22;10869;52.238;10.716;2023-01-25T12:39:36;0.40;99.90
21417;DHT22;10869;52.238;10.716;2023-01-25T12:42:19;0.50;99.90
21417;DHT22;10869;52.238;10.716;2023-01-25T12:44:53;0.50;99.90
21417;DHT22;10869;52.238;10.716;2023-01-25T12:50:17;0.40;99.90
21417;DHT22;10869;52.238;10.716;2023-01-25T12:52:55;0.40;99.90
21417;DHT22;10869;52.238;10.716;2023-01-25T12:55:22;0.40;99.90
21417;DHT22;10869;52.238;10.716;2023-01-25T12:58:06;0.40;99.90
21417;DHT22;10869;52.238;10.716;2023-01-25T13:00:54;0.40;99.90
21417;DHT22;10869;52.238;10.716;2023-01-25T13:06:43;0.40;99.90
21417;DHT22;10869;52.238;10.716;2023-01-25T13:09:25;0.40;99.90
21417;DHT22;10869;52.238;10.716;2023-01-25T13:11:52;0.40;99.90
21417;DHT22;10869;52.238;10.716;2023-01-25T13:16:53;0.40;99.90
21417;DHT22;10869;52.238;10.716;2023-01-25T13:21:58;0.40;99.90
21417;DHT22;10869;52.238;10.716;2023-01-25T13:24:29;0.40;99.90
21417;DHT22;10869;52.238;10.716;2023-01-25T13:26:56;0.40;99.90
21417;DHT22;10869;52.238;10.716;2023-01-25T13:32:51;0.30;99.90
21417;DHT22;10869;52.238;10.716;2023-01-25T13:37:26;0.40;99.90
21417;DHT22;10869;52.238;10.716;2023-01-25T13:45:39;0.40;99.90
21417;DHT22;10869;52.238;10.716;2023-01-25T13:48:15;0.40;99.90
21417;DHT22;10869;52.238;10.716;2023-01-25T13:50:46;0.40;99.90
21417;DHT22;10869;52.238;10.716;2023-01-25T13:55:44;0.30;99.90
21417;DHT22;10869;52.238;10.716;2023-01-25T13:58:34;0.40;99.90
21417;DHT22;10869;52.238;10.716;2023-01-25T14:01:20;0.30;99.90
21417;DHT22;10869;52.238;10.716;2023-01-25T14:04:45;0.30;99.90
21417;DHT22;10869;52.238;10.716;2023-01-25T14:07:57;0.30;99.90
21417;DHT22;10869;52.238;10.716;2023-01-25T14:10:37;0.20;99.90
21417;DHT22;10869;52.238;10.716;2023-01-25T14:13:03;0.20;99.90
21417;DHT22;10869;52.238;10.716;2023-01-25T14:18:50;0.20;99.90
21417;DHT22;10869;52.238;10.716;2023-01-25T14:24:38;0.20;99.90
21417;DHT22;10869;52.238;10.716;2023-01-25T14:27:05;0.20;99.90
21417;DHT22;10869;52.238;10.716;2023-01-25T14:32:55;0.10;99.90
21417;DHT22;10869;52.238;10.716;2023-01-25T14:35:32;0.10;99.90
21417;DHT22;10869;52.238;10.716;2023-01-25T14:37:58;0.10;99.90
21417;DHT22;10869;52.238;10.716;2023-01-25T14:40:28;0.20;99.90
21417;DHT22;10869;52.238;10.716;2023-01-25T14:42:55;0.20;99.90
21417;DHT22;10869;52.238;10.716;2023-01-25T14:45:22;0.20;99.90
21417;DHT22;10869;52.238;10.716;2023-01-25T14:47:52;0.20;99.90
21417;DHT22;10869;52.238;10.716;2023-01-25T14:53:43;0.10;99.90
21417;DHT22;10869;52.238;10.716;2023-01-25T14:56:44;0.10;99.90
21417;DHT22;10869;52.238;10.716;2023-01-25T14:59:40;0.10;99.90
21417;DHT22;10869;52.238;10.716;2023-01-25T15:02:25;0.10;99.90
21417;DHT22;10869;52.238;10.716;2023-01-25T15:04:56;0.10;99.90
21417;DHT22;10869;52.238;10.716;2023-01-25T15:10:55;0.00;99.90
21417;DHT22;10869;52.238;10.716;2023-01-25T15:13:26;0.00;99.90
21417;DHT22;10869;52.238;10.716;2023-01-25T15:19:29;0.00;99.90
21417;DHT22;10869;52.238;10.716;2023-01-25T15:21:57;0.00;99.90
21417;DHT22;10869;52.238;10.716;2023-01-25T15:24:23;-0.10;99.90
21417;DHT22;10869;52.238;10.716;2023-01-25T15:30:16;-0.10;99.90
21417;DHT22;10869;52.238;10.716;2023-01-25T15:32:45;0.00;99.90
21417;DHT22;10869;52.238;10.716;2023-01-25T15:42:05;-0.20;99.90
21417;DHT22;10869;52.238;10.716;2023-01-25T15:44:31;-0.20;99.90
21417;DHT22;10869;52.238;10.716;2023-01-25T15:46:57;-0.20;99.90
21417;DHT22;10869;52.238;10.716;2023-01-25T15:49:31;-0.20;99.90
21417;DHT22;10869;52.238;10.716;2023-01-25T15:52:01;-0.20;99.90
21417;DHT22;10869;52.238;10.716;2023-01-25T15:54:29;-0.20;99.90
21417;DHT22;10869;52.238;10.716;2023-01-25T16:00:19;-0.20;99.90
21417;DHT22;10869;52.238;10.716;2023-01-25T16:02:46;-0.20;99.90
21417;DHT22;10869;52.238;10.716;2023-01-25T16:05:12;-0.20;99.90
21417;DHT22;10869;52.238;10.716;2023-01-25T16:11:00;-0.20;99.90
21417;DHT22;10869;52.238;10.716;2023-01-25T16:13:26;-0.20;99.90
21417;DHT22;10869;52.238;10.716;2023-01-25T16:15:52;-0.20;99.90
21417;DHT22;10869;52.238;10.716;2023-01-25T16:18:19;-0.10;99.90
21417;DHT22;10869;52.238;10.716;2023-01-25T16:20:45;-0.10;99.90
21417;DHT22;10869;52.238;10.716;2023-01-25T16:23:11;-0.10;99.90
21417;DHT22;10869;52.238;10.716;2023-01-25T16:25:38;-0.10;99.90
21417;DHT22;10869;52.238;10.716;2023-01-25T16:28:04;-0.10;99.90
21417;DHT22;10869;52.238;10.716;2023-01-25T16:30:30;-0.10;99.90
21417;DHT22;10869;52.238;10.716;2023-01-25T16:32:59;-0.10;99.90
21417;DHT22;10869;52.238;10.716;2023-01-25T16:35:25;-0.10;99.90
21417;DHT22;10869;52.238;10.716;2023-01-25T16:37:50;-0.10;99.90
21417;DHT22;10869;52.238;10.716;2023-01-25T16:40:28;-0.10;99.90
21417;DHT22;10869;52.238;10.716;2023-01-25T16:42:56;-0.10;99.90
21417;DHT22;10869;52.238;10.716;2023-01-25T16:45:22;-0.10;99.90
21417;DHT22;10869;52.238;10.716;2023-01-25T16:53:45;-0.20;99.90
21417;DHT22;10869;52.238;10.716;2023-01-25T16:56:19;-0.20;99.90
21417;DHT22;10869;52.238;10.716;2023-01-25T16:58:45;-0.20;99.90
21417;DHT22;10869;52.238;10.716;2023-01-25T17:01:13;-0.20;99.90
21417;DHT22;10869;52.238;10.716;2023-01-25T17:03:39;-0.20;99.90
21417;DHT22;10869;52.238;10.716;2023-01-25T17:06:05;-0.10;99.90
21417;DHT22;10869;52.238;10.716;2023-01-25T17:08:31;-0.10;99.90
21417;DHT22;10869;52.238;10.716;2023-01-25T17:11:02;-0.10;99.90
21417;DHT22;10869;52.238;10.716;2023-01-25T17:13:28;-0.10;99.90
21417;DHT22;10869;52.238;10.716;2023-01-25T17:15:57;-0.10;99.90
21417;DHT22;10869;52.238;10.716;2023-01-25T17:18:25;-0.10;99.90
21417;DHT22;10869;52.238;10.716;2023-01-25T17:21:04;-0.10;99.90
21417;DHT22;10869;52.238;10.716;2023-01-25T17:26:57;-0.20;99.90
21417;DHT22;10869;52.238;10.716;2023-01-25T17:29:23;-0.20;99.90
21417;DHT22;10869;52.238;10.716;2023-01-25T17:31:49;-0.20;99.90
21417;DHT22;10869;52.238;10.716;2023-01-25T17:34:16;-0.20;99.90
21417;DHT22;10869;52.238;10.716;2023-01-25T17:36:43;-0.20;99.90
21417;DHT22;10869;52.238;10.716;2023-01-25T17:39:16;-0.20;99.90
21417;DHT22;10869;52.238;10.716;2023-01-25T17:41:48;-0.20;99.90
21417;DHT22;10869;52.238;10.716;2023-01-25T17:44:17;-0.20;99.90
21417;DHT22;10869;52.238;10.716;2023-01-25T17:46:47;-0.20;99.90
21417;DHT22;10869;52.238;10.716;2023-01-25T17:49:13;-0.20;99.90
21417;DHT22;10869;52.238;10.716;2023-01-25T17:51:41;-0.20;99.90
21417;DHT22;10869;52.238;10.716;2023-01-25T17:54:08;-0.20;99.90
21417;DHT22;10869;52.238;10.716;2023-01-25T17:56:34;-0.30;99.90
21417;DHT22;10869;52.238;10.716;2023-01-25T17:59:00;-0.30;99.90
21417;DHT22;10869;52.238;10.716;2023-01-25T18:01:28;-0.30;99.90
21417;DHT22;10869;52.238;10.716;2023-01-25T18:03:56;-0.30;99.90
21417;DHT22;10869;52.238;10.716;2023-01-25T18:06:27;-0.30;99.90
21417;DHT22;10869;52.238;10.716;2023-01-25T18:12:15;-0.30;99.90
21417;DHT22;10869;52.238;10.716;2023-01-25T18:18:04;-0.30;99.90
21417;DHT22;10869;52.238;10.716;2023-01-25T18:20:31;-0.30;99.90
21417;DHT22;10869;52.238;10.716;2023-01-25T18:22:57;-0.40;99.90
21417;DHT22;10869;52.238;10.716;2023-01-25T18:27:56;-0.40;99.90
21417;DHT22;10869;52.238;10.716;2023-01-25T18:30:32;-0.40;99.90
21417;DHT22;10869;52.238;10.716;2023-01-25T18:32:59;-0.30;99.90
21417;DHT22;10869;52.238;10.716;2023-01-25T18:35:27;-0.40;99.90
21417;DHT22;10869;52.238;10.716;2023-01-25T18:37:53;-0.30;99.90
21417;DHT22;10869;52.238;10.716;2023-01-25T18:40:19;-0.30;99.90
21417;DHT22;10869;52.238;10.716;2023-01-25T18:42:47;-0.30;99.90
21417;DHT22;10869;52.238;10.716;2023-01-25T18:45:14;-0.30;99.90
21417;DHT22;10869;52.238;10.716;2023-01-25T18:47:40;-0.30;99.90
21417;DHT22;10869;52.238;10.716;2023-01-25T18:50:07;-0.30;99.90
21417;DHT22;10869;52.238;10.716;2023-01-25T18:52:34;-0.40;99.90
21417;DHT22;10869;52.238;10.716;2023-01-25T18:55:00;-0.40;99.90
21417;DHT22;10869;52.238;10.716;2023-01-25T18:57:26;-0.50;99.90
21417;DHT22;10869;52.238;10.716;2023-01-25T18:59:52;-0.50;99.90
21417;DHT22;10869;52.238;10.716;2023-01-25T19:02:19;-0.50;99.90
21417;DHT22;10869;52.238;10.716;2023-01-25T19:04:45;-0.50;99.90
21417;DHT22;10869;52.238;10.716;2023-01-25T19:17:18;-0.50;99.90
21417;DHT22;10869;52.238;10.716;2023-01-25T19:19:44;-0.50;99.90
21417;DHT22;10869;52.238;10.716;2023-01-25T19:22:10;-0.50;99.90
21417;DHT22;10869;52.238;10.716;2023-01-25T19:24:38;-0.50;99.90
21417;DHT22;10869;52.238;10.716;2023-01-25T19:30:26;-0.50;99.90
21417;DHT22;10869;52.238;10.716;2023-01-25T19:32:52;-0.50;99.90
21417;DHT22;10869;52.238;10.716;2023-01-25T19:35:18;-0.50;99.90
21417;DHT22;10869;52.238;10.716;2023-01-25T19:37:47;-0.50;99.90
21417;DHT22;10869;52.238;10.716;2023-01-25T19:40:18;-0.50;99.90
21417;DHT22;10869;52.238;10.716;2023-01-25T19:42:44;-0.50;99.90
21417;DHT22;10869;52.238;10.716;2023-01-25T19:48:33;-0.50;99.90
21417;DHT22;10869;52.238;10.716;2023-01-25T19:54:17;-0.50;99.90
21417;DHT22;10869;52.238;10.716;2023-01-25T19:56:47;-0.50;99.90
21417;DHT22;10869;52.238;10.716;2023-01-25T19:59:16;-0.50;99.90
21417;DHT22;10869;52.238;10.716;2023-01-25T20:01:42;-0.50;99.90
21417;DHT22;10869;52.238;10.716;2023-01-25T20:04:18;-0.40;99.90
21417;DHT22;10869;52.238;10.716;2023-01-25T20:06:44;-0.40;99.90
21417;DHT22;10869;52.238;10.716;2023-01-25T20:09:12;-0.50;99.90
21417;DHT22;10869;52.238;10.716;2023-01-25T20:11:38;-0.50;99.90
21417;DHT22;10869;52.238;10.716;2023-01-25T20:14:05;-0.50;99.90
21417;DHT22;10869;52.238;10.716;2023-01-25T20:16:33;-0.60;99.90
21417;DHT22;10869;52.238;10.716;2023-01-25T20:18:59;-0.60;99.90
21417;DHT22;10869;52.238;10.716;2023-01-25T20:21:27;-0.60;99.90
21417;DHT22;10869;52.238;10.716;2023-01-25T20:27:15;-0.60;99.90
21417;DHT22;10869;52.238;10.716;2023-01-25T20:29:41;-0.60;99.90
21417;DHT22;10869;52.238;10.716;2023-01-25T20:32:07;-0.60;99.90
21417;DHT22;10869;52.238;10.716;2023-01-25T20:34:35;-0.60;99.90
21417;DHT22;10869;52.238;10.716;2023-01-25T20:37:01;-0.70;99.90
21417;DHT22;10869;52.238;10.716;2023-01-25T20:39:27;-0.70;99.90
21417;DHT22;10869;52.238;10.716;2023-01-25T20:41:53;-0.70;99.90
21417;DHT22;10869;52.238;10.716;2023-01-25T20:44:24;-0.60;99.90
21417;DHT22;10869;52.238;10.716;2023-01-25T20:46:50;-0.60;99.90
21417;DHT22;10869;52.238;10.716;2023-01-25T20:52:38;-0.60;99.90
21417;DHT22;10869;52.238;10.716;2023-01-25T20:55:04;-0.60;99.90
21417;DHT22;10869;52.238;10.716;2023-01-25T20:57:30;-0.70;99.90
21417;DHT22;10869;52.238;10.716;2023-01-25T20:59:55;-0.70;99.90
21417;DHT22;10869;52.238;10.716;2023-01-25T21:02:21;-0.70;99.90
21417;DHT22;10869;52.238;10.716;2023-01-25T21:04:47;-0.70;99.90
21417;DHT22;10869;52.238;10.716;2023-01-25T21:10:34;-0.70;99.90
21417;DHT22;10869;52.238;10.716;2023-01-25T21:13:00;-0.60;99.90
21417;DHT22;10869;52.238;10.716;2023-01-25T21:15:26;-0.60;99.90
21417;DHT22;10869;52.238;10.716;2023-01-25T21:21:22;-0.60;99.90
21417;DHT22;10869;52.238;10.716;2023-01-25T21:23:49;-0.60;99.90
21417;DHT22;10869;52.238;10.716;2023-01-25T21:26:17;-0.60;99.90
21417;DHT22;10869;52.238;10.716;2023-01-25T21:28:44;-0.60;99.90
21417;DHT22;10869;52.238;10.716;2023-01-25T21:31:13;-0.60;99.90
21417;DHT22;10869;52.238;10.716;2023-01-25T21:33:39;-0.60;99.90
21417;DHT22;10869;52.238;10.716;2023-01-25T21:36:06;-0.60;99.90
21417;DHT22;10869;52.238;10.716;2023-01-25T21:38:39;-0.60;99.90
21417;DHT22;10869;52.238;10.716;2023-01-25T21:41:06;-0.60;99.90
21417;DHT22;10869;52.238;10.716;2023-01-25T21:43:32;-0.60;99.90
21417;DHT22;10869;52.238;10.716;2023-01-25T21:46:20;-0.60;99.90
21417;DHT22;10869;52.238;10.716;2023-01-25T21:48:52;-0.60;99.90
21417;DHT22;10869;52.238;10.716;2023-01-25T21:51:36;-0.50;99.90
21417;DHT22;10869;52.238;10.716;2023-01-25T21:54:04;-0.50;99.90
21417;DHT22;10869;52.238;10.716;2023-01-25T21:56:30;-0.50;99.90
21417;DHT22;10869;52.238;10.716;2023-01-25T21:58:56;-0.50;99.90
21417;DHT22;10869;52.238;10.716;2023-01-25T22:01:22;-0.50;99.90
21417;DHT22;10869;52.238;10.716;2023-01-25T22:03:48;-0.50;99.90
21417;DHT22;10869;52.238;10.716;2023-01-25T22:06:15;-0.50;99.90
21417;DHT22;10869;52.238;10.716;2023-01-25T22:08:41;-0.50;99.90
21417;DHT22;10869;52.238;10.716;2023-01-25T22:11:07;-0.50;99.90
21417;DHT22;10869;52.238;10.716;2023-01-25T22:13:35;-0.50;99.90
21417;DHT22;10869;52.238;10.716;2023-01-25T22:16:02;-0.60;99.90
21417;DHT22;10869;52.238;10.716;2023-01-25T22:18:31;-0.60;99.90
21417;DHT22;10869;52.238;10.716;2023-01-25T22:21:02;-0.60;99.90
21417;DHT22;10869;52.238;10.716;2023-01-25T22:23:29;-0.50;99.90
21417;DHT22;10869;52.238;10.716;2023-01-25T22:28:54;-0.60;99.90
21417;DHT22;10869;52.238;10.716;2023-01-25T22:31:21;-0.60;99.90
21417;DHT22;10869;52.238;10.716;2023-01-25T22:33:48;-0.60;99.90
21417;DHT22;10869;52.238;10.716;2023-01-25T22:36:16;-0.70;99.90
21417;DHT22;10869;52.238;10.716;2023-01-25T22:38:42;-0.70;99.90
21417;DHT22;10869;52.238;10.716;2023-01-25T22:41:10;-0.70;99.90
21417;DHT22;10869;52.238;10.716;2023-01-25T22:43:36;-0.70;99.90
21417;DHT22;10869;52.238;10.716;2023-01-25T22:46:03;-0.70;99.90
21417;DHT22;10869;52.238;10.716;2023-01-25T22:48:29;-0.70;99.90
21417;DHT22;10869;52.238;10.716;2023-01-25T22:51:02;-0.70;99.90
21417;DHT22;10869;52.238;10.716;2023-01-25T22:53:29;-0.80;99.90
21417;DHT22;10869;52.238;10.716;2023-01-25T22:56:05;-0.70;99.90
21417;DHT22;10869;52.238;10.716;2023-01-25T22:58:35;-0.80;99.90
21417;DHT22;10869;52.238;10.716;2023-01-25T23:01:02;-0.70;99.90
21417;DHT22;10869;52.238;10.716;2023-01-25T23:03:28;-0.70;99.90
21417;DHT22;10869;52.238;10.716;2023-01-25T23:06:23;-0.70;99.90
21417;DHT22;10869;52.238;10.716;2023-01-25T23:08:52;-0.70;99.90
21417;DHT22;10869;52.238;10.716;2023-01-25T23:11:20;-0.70;99.90
21417;DHT22;10869;52.238;10.716;2023-01-25T23:13:46;-0.70;99.90
21417;DHT22;10869;52.238;10.716;2023-01-25T23:16:32;-0.80;99.90
21417;DHT22;10869;52.238;10.716;2023-01-25T23:18:58;-0.80;99.90
21417;DHT22;10869;52.238;10.716;2023-01-25T23:21:26;-0.80;99.90
21417;DHT22;10869;52.238;10.716;2023-01-25T23:23:56;-0.80;99.90
21417;DHT22;10869;52.238;10.716;2023-01-25T23:26:23;-0.90;99.90
21417;DHT22;10869;52.238;10.716;2023-01-25T23:28:53;-0.90;99.90
21417;DHT22;10869;52.238;10.716;2023-01-25T23:31:20;-0.90;99.90
21417;DHT22;10869;52.238;10.716;2023-01-25T23:33:48;-0.90;99.90
21417;DHT22;10869;52.238;10.716;2023-01-25T23:36:20;-0.90;99.90
21417;DHT22;10869;52.238;10.716;2023-01-25T23:38:47;-1.00;99.90
21417;DHT22;10869;52.238;10.716;2023-01-25T23:41:13;-1.00;99.90
21417;DHT22;10869;52.238;10.716;2023-01-25T23:43:40;-1.00;99.90
21417;DHT22;10869;52.238;10.716;2023-01-25T23:46:06;-1.00;99.90
21417;DHT22;10869;52.238;10.716;2023-01-25T23:48:32;-1.00;99.90
21417;DHT22;10869;52.238;10.716;2023-01-25T23:50:58;-1.00;99.90